Time;durP1;ratioP1;P1;durP2;ratioP2;P2;SDS_P1;SDS_P2;PMS_P1;PMS_P2;Temp;Humidity;BMP_temperature;BMP_pressure;BME280_temperature;BME280_humidity;BME280_pressure;Samples;Min_cycle;Max_cycle;Signal;HPM_P1;HPM_P2
2022/09/21 00:00:23;;;;;;;1.60;1.50;;;;;;;13.01;nan;-24180.28;5031914;28;20160;-68
2022/09/21 00:02:49;;;;;;;1.77;1.67;;;;;;;13.27;nan;-24187.59;5031438;28;20219;-67
2022/09/21 00:05:15;;;;;;;1.63;1.48;;;;;;;12.91;nan;-24177.34;5031724;28;20191;-70
2022/09/21 00:07:40;;;;;;;2.55;1.77;;;;;;;13.36;nan;-24189.84;5031704;28;20199;-68
2022/09/21 00:10:06;;;;;;;2.45;1.80;;;;;;;12.98;nan;-24179.44;5031864;28;20689;-68
2022/09/21 00:12:32;;;;;;;4.43;2.42;;;;;;;13.29;nan;-24188.03;5031861;28;20187;-68
2022/09/21 00:14:57;;;;;;;1.60;1.50;;;;;;;13.10;nan;-24182.69;5030448;28;20573;-68
2022/09/21 00:17:23;;;;;;;2.17;1.98;;;;;;;12.65;nan;-24170.16;5031956;28;20179;-68
2022/09/21 00:19:48;;;;;;;2.47;1.77;;;;;;;12.87;nan;-24176.22;5031633;28;20160;-69
2022/09/21 00:22:14;;;;;;;1.75;1.58;;;;;;;12.98;nan;-24179.31;5031772;28;20665;-66
2022/09/21 00:24:39;;;;;;;2.13;1.88;;;;;;;12.84;nan;-24175.50;5030536;28;20225;-69
2022/09/21 00:27:04;;;;;;;1.95;1.60;;;;;;;13.13;nan;-24183.66;5033031;28;20627;-67
2022/09/21 00:29:30;;;;;;;2.22;1.88;;;;;;;13.10;nan;-24182.81;5032880;28;20201;-67
2022/09/21 00:31:55;;;;;;;2.65;1.60;;;;;;;13.01;nan;-24180.28;5030591;28;20567;-66
2022/09/21 00:34:21;;;;;;;1.50;1.40;;;;;;;12.96;nan;-24178.88;5031899;28;20342;-69
2022/09/21 00:36:46;;;;;;;3.47;1.65;;;;;;;13.15;nan;-24184.22;5032478;28;20179;-67
2022/09/21 00:39:12;;;;;;;2.30;2.10;;;;;;;12.93;nan;-24178.03;5031922;28;20175;-68
2022/09/21 00:41:37;;;;;;;1.70;1.60;;;;;;;13.17;nan;-24184.78;5031638;28;20717;-69
2022/09/21 00:44:22;;;;;;;1.58;1.48;;;;;;;12.86;nan;-24176.06;5031863;28;20222;-68
2022/09/21 00:46:49;;;;;;;1.75;1.65;;;;;;;12.97;nan;-24179.16;5031878;28;20199;-67
2022/09/21 00:49:15;;;;;;;2.17;1.50;;;;;;;12.95;nan;-24178.59;5031900;28;20167;-67
2022/09/21 00:51:41;;;;;;;1.67;1.58;;;;;;;12.76;nan;-24173.41;5033369;28;20626;-66
2022/09/21 00:54:13;;;;;;;1.58;1.48;;;;;;;13.09;nan;-24182.41;5035803;28;20168;-66
2022/09/21 00:56:40;;;;;;;2.28;2.03;;;;;;;12.76;nan;-24173.41;5035684;28;20614;-67
2022/09/21 00:59:06;;;;;;;2.00;1.80;;;;;;;12.79;nan;-24174.09;5036657;28;20262;-67
2022/09/21 01:01:33;;;;;;;1.80;1.58;;;;;;;12.93;nan;-24178.03;5035330;28;20210;-70
2022/09/21 01:03:59;;;;;;;1.40;1.30;;;;;;;12.90;nan;-24177.06;5033952;28;20280;-67
2022/09/21 01:06:25;;;;;;;1.70;1.60;;;;;;;12.93;nan;-24178.03;5035568;28;20183;-67
2022/09/21 01:08:54;;;;;;;1.73;1.63;;;;;;;12.96;nan;-24178.88;5034231;28;20179;-68
2022/09/21 01:11:38;;;;;;;1.48;1.38;;;;;;;12.92;nan;-24177.63;5035746;28;20329;-70
2022/09/21 01:14:18;;;;;;;1.70;1.60;;;;;;;12.93;nan;-24178.03;5035738;28;20175;-68
2022/09/21 01:17:05;;;;;;;2.38;1.70;;;;;;;12.83;nan;-24175.22;5035814;28;20228;-68
2022/09/21 01:19:46;;;;;;;2.03;1.83;;;;;;;12.90;nan;-24177.06;5035509;28;20164;-67
2022/09/21 01:22:25;;;;;;;1.35;1.25;;;;;;;12.89;nan;-24176.78;5035204;28;20159;-69
2022/09/21 01:24:56;;;;;;;3.72;1.70;;;;;;;12.76;nan;-24173.25;5035670;28;20163;-68
2022/09/21 01:27:48;;;;;;;2.45;1.58;;;;;;;12.83;nan;-24175.22;5035440;28;20257;-69
2022/09/21 01:30:18;;;;;;;2.28;1.67;;;;;;;12.84;nan;-24175.66;5035606;28;20163;-68
2022/09/21 01:33:15;;;;;;;1.70;1.55;;;;;;;12.88;nan;-24176.50;5035303;28;20598;-68
2022/09/21 01:35:48;;;;;;;2.10;1.70;;;;;;;12.90;nan;-24177.19;5034998;28;20282;-67
2022/09/21 01:38:20;;;;;;;2.05;1.77;;;;;;;12.70;nan;-24171.56;5035347;28;20620;-68
2022/09/21 01:40:51;;;;;;;1.90;1.63;;;;;;;12.76;nan;-24173.25;5034649;28;20643;-69
2022/09/21 01:43:24;;;;;;;1.58;1.48;;;;;;;12.62;nan;-24169.31;5034836;28;20163;-69
2022/09/21 01:45:54;;;;;;;2.25;1.52;;;;;;;12.42;nan;-24163.84;5035240;28;20164;-68
2022/09/21 01:48:22;;;;;;;2.13;1.50;;;;;;;12.70;nan;-24171.56;5035131;28;20600;-67
2022/09/21 01:50:56;;;;;;;2.13;1.88;;;;;;;12.43;nan;-24163.97;5034011;28;20516;-66
2022/09/21 01:53:31;;;;;;;1.92;1.73;;;;;;;12.28;nan;-24160.03;5034694;28;20669;-70
2022/09/21 01:56:06;;;;;;;2.17;1.77;;;;;;;12.80;nan;-24174.38;5034779;28;20645;-66
2022/09/21 01:59:16;;;;;;;1.85;1.50;;;;;;;12.84;nan;-24175.66;5034961;28;20660;-68
2022/09/21 02:01:51;;;;;;;1.92;1.60;;;;;;;12.78;nan;-24173.81;5034843;28;20171;-69
2022/09/21 02:04:17;;;;;;;1.90;1.63;;;;;;;12.69;nan;-24171.28;5033738;28;20273;-67
2022/09/21 02:06:46;;;;;;;3.40;1.80;;;;;;;12.74;nan;-24172.69;5034593;28;20202;-66
2022/09/21 02:09:12;;;;;;;2.40;1.85;;;;;;;12.46;nan;-24164.81;5034734;28;20245;-66
2022/09/21 02:11:41;;;;;;;1.98;1.83;;;;;;;12.42;nan;-24163.69;5034497;28;20615;-66
2022/09/21 02:14:21;;;;;;;2.50;2.25;;;;;;;12.56;nan;-24167.63;5034184;28;20674;-68
2022/09/21 02:17:10;;;;;;;2.10;1.60;;;;;;;12.59;nan;-24168.63;5034592;28;20175;-68
2022/09/21 02:20:02;;;;;;;1.88;1.73;;;;;;;13.02;nan;-24180.44;5035412;28;20179;-68
2022/09/21 02:22:35;;;;;;;2.75;1.95;;;;;;;13.10;nan;-24182.81;5034133;28;20217;-69
2022/09/21 02:25:14;;;;;;;2.10;1.73;;;;;;;13.09;nan;-24182.53;5034305;28;20175;-69
2022/09/21 02:28:06;;;;;;;2.30;1.92;;;;;;;12.93;nan;-24178.03;5033042;28;20214;-67
2022/09/21 02:30:34;;;;;;;2.55;1.55;;;;;;;12.91;nan;-24177.47;5034436;28;20259;-69
2022/09/21 02:33:17;;;;;;;2.63;1.98;;;;;;;13.17;nan;-24184.66;5034539;28;20543;-66
2022/09/21 02:36:11;;;;;;;2.00;1.80;;;;;;;12.84;nan;-24175.50;5035074;28;20167;-66
2022/09/21 02:38:45;;;;;;;2.53;1.80;;;;;;;12.97;nan;-24179.16;5034281;28;20229;-69
2022/09/21 02:41:32;;;;;;;1.77;1.67;;;;;;;13.12;nan;-24183.38;5034209;28;20171;-70
2022/09/21 02:44:01;;;;;;;1.77;1.63;;;;;;;13.08;nan;-24182.25;5034081;28;20171;-66
2022/09/21 02:46:43;;;;;;;1.77;1.35;;;;;;;13.04;nan;-24181.13;5034260;28;20172;-70
2022/09/21 02:49:22;;;;;;;2.13;1.85;;;;;;;13.08;nan;-24182.13;5034385;28;20223;-68
2022/09/21 02:51:51;;;;;;;2.08;1.50;;;;;;;13.06;nan;-24181.56;5034492;28;20170;-69
2022/09/21 02:54:25;;;;;;;2.65;1.90;;;;;;;12.91;nan;-24177.47;5032716;28;20649;-66
2022/09/21 02:56:53;;;;;;;1.77;1.50;;;;;;;13.07;nan;-24181.97;5033961;28;20163;-67
2022/09/21 02:59:20;;;;;;;2.10;1.90;;;;;;;12.94;nan;-24178.31;5032443;28;20570;-67
2022/09/21 03:01:46;;;;;;;2.13;1.75;;;;;;;13.04;nan;-24181.13;5033202;28;20159;-70
2022/09/21 03:04:11;;;;;;;2.55;2.00;;;;;;;12.96;nan;-24178.88;5033091;28;20202;-69
2022/09/21 03:06:37;;;;;;;2.33;1.88;;;;;;;12.92;nan;-24177.63;5033673;28;20178;-68
2022/09/21 03:09:02;;;;;;;1.70;1.60;;;;;;;12.64;nan;-24170.03;5033327;28;20167;-69
2022/09/21 03:11:28;;;;;;;1.98;1.73;;;;;;;12.89;nan;-24176.91;5033438;28;20618;-68
2022/09/21 03:13:53;;;;;;;1.67;1.58;;;;;;;12.69;nan;-24171.28;5033184;28;20541;-68
2022/09/21 03:16:19;;;;;;;1.55;1.45;;;;;;;12.52;nan;-24166.66;5032859;28;20176;-67
2022/09/21 03:18:44;;;;;;;4.93;1.73;;;;;;;12.84;nan;-24175.66;5031873;28;20182;-70
2022/09/21 03:21:11;;;;;;;2.40;1.75;;;;;;;12.62;nan;-24169.47;5032943;28;20171;-68
2022/09/21 03:23:37;;;;;;;2.13;1.80;;;;;;;12.75;nan;-24172.97;5023262;28;20187;-68
2022/09/21 03:26:02;;;;;;;3.42;2.50;;;;;;;12.96;nan;-24178.88;5026234;28;20186;-70
2022/09/21 03:28:28;;;;;;;1.95;1.73;;;;;;;12.71;nan;-24171.84;5025081;28;20579;-67
2022/09/21 03:30:53;;;;;;;1.92;1.65;;;;;;;12.30;nan;-24160.47;5025153;28;20171;-69
2022/09/21 03:33:19;;;;;;;2.58;1.92;;;;;;;12.59;nan;-24168.47;5026747;28;20249;-69
2022/09/21 03:35:47;;;;;;;2.70;1.83;;;;;;;12.66;nan;-24170.59;5009094;28;20844;-67
2022/09/21 03:38:13;;;;;;;2.10;1.80;;;;;;;12.86;nan;-24176.06;5025598;28;20207;-66
2022/09/21 03:40:39;;;;;;;2.50;2.10;;;;;;;12.43;nan;-24163.97;5027093;28;20183;-70
2022/09/21 03:43:04;;;;;;;2.40;2.00;;;;;;;12.23;nan;-24158.63;5025995;28;20220;-68
2022/09/21 03:45:30;;;;;;;2.80;1.55;;;;;;;12.51;nan;-24166.22;5025333;28;20658;-69
2022/09/21 03:47:57;;;;;;;2.47;1.90;;;;;;;12.62;nan;-24169.31;5024985;28;20685;-67
2022/09/21 03:50:24;;;;;;;2.15;1.75;;;;;;;12.62;nan;-24169.47;5025768;28;20179;-70
2022/09/21 03:52:50;;;;;;;2.60;2.00;;;;;;;12.68;nan;-24171.16;5024990;28;20185;-69
2022/09/21 03:55:15;;;;;;;2.10;1.90;;;;;;;12.25;nan;-24159.19;5025142;28;20179;-68
2022/09/21 03:57:41;;;;;;;2.45;1.77;;;;;;;12.43;nan;-24163.97;5024173;28;20183;-69
2022/09/21 04:00:10;;;;;;;1.95;1.85;;;;;;;12.10;nan;-24154.97;5024378;28;20180;-67
2022/09/21 04:02:38;;;;;;;1.67;1.58;;;;;;;12.30;nan;-24160.47;5026244;28;20227;-68
2022/09/21 04:05:05;;;;;;;2.50;1.97;;;;;;;12.50;nan;-24166.09;5027152;28;20301;-67
2022/09/21 04:07:33;;;;;;;2.35;2.15;;;;;;;12.36;nan;-24162.28;5025069;28;20218;-70
2022/09/21 04:09:59;;;;;;;2.15;1.92;;;;;;;12.31;nan;-24160.75;5025985;28;20364;-69
2022/09/21 04:12:25;;;;;;;2.60;1.98;;;;;;;12.38;nan;-24162.72;5025981;28;20183;-71
2022/09/21 04:14:51;;;;;;;2.05;1.83;;;;;;;12.53;nan;-24166.94;5027083;28;20179;-67
2022/09/21 04:17:16;;;;;;;4.57;2.13;;;;;;;12.56;nan;-24167.63;5000947;28;20187;-69
2022/09/21 04:19:43;;;;;;;2.05;1.73;;;;;;;12.54;nan;-24167.06;5026174;28;20333;-69
2022/09/21 04:22:10;;;;;;;2.17;1.97;;;;;;;12.43;nan;-24164.13;5000864;28;20669;-69
2022/09/21 04:24:38;;;;;;;2.07;1.87;;;;;;;12.78;nan;-24173.97;5025119;28;20634;-65
2022/09/21 04:27:03;;;;;;;2.97;1.80;;;;;;;12.52;nan;-24166.66;5021730;28;20499;-67
2022/09/21 04:29:29;;;;;;;2.67;2.08;;;;;;;12.91;nan;-24177.47;5025664;28;20670;-67
2022/09/21 04:31:55;;;;;;;3.22;1.80;;;;;;;12.73;nan;-24172.56;5040131;28;20190;-67
2022/09/21 04:34:20;;;;;;;3.92;2.63;;;;;;;12.89;nan;-24176.91;5023634;28;20199;-69
2022/09/21 04:36:46;;;;;;;2.08;1.63;;;;;;;13.07;nan;-24181.97;5024512;28;20638;-70
2022/09/21 04:39:12;;;;;;;1.80;1.70;;;;;;;13.04;nan;-24181.13;5022054;28;20199;-70
2022/09/21 04:41:37;;;;;;;3.17;1.88;;;;;;;12.91;nan;-24177.47;5000383;28;20697;-65
2022/09/21 04:44:03;;;;;;;2.28;1.77;;;;;;;12.81;nan;-24174.81;5011593;28;20255;-69
2022/09/21 04:46:28;;;;;;;2.00;1.80;;;;;;;12.99;nan;-24179.59;5030446;28;20179;-69
2022/09/21 04:48:54;;;;;;;3.45;2.20;;;;;;;12.95;nan;-24178.47;5031497;28;20167;-67
2022/09/21 04:51:19;;;;;;;2.30;2.08;;;;;;;13.01;nan;-24180.16;5030087;28;20205;-67
2022/09/21 04:53:44;;;;;;;2.53;1.80;;;;;;;12.85;nan;-24175.94;5029768;28;20189;-68
2022/09/21 04:56:13;;;;;;;2.70;2.40;;;;;;;12.93;nan;-24178.03;5031564;28;20517;-70
2022/09/21 04:58:39;;;;;;;2.45;1.95;;;;;;;12.93;nan;-24178.03;5030580;28;20263;-72
2022/09/21 05:01:06;;;;;;;2.65;2.30;;;;;;;13.22;nan;-24186.19;5031192;28;20262;-68
2022/09/21 05:03:32;;;;;;;2.08;1.80;;;;;;;13.29;nan;-24188.03;5032428;28;20279;-70
2022/09/21 05:05:58;;;;;;;1.90;1.80;;;;;;;13.28;nan;-24187.88;5036668;28;20275;-67
2022/09/21 05:11:15;;;;;;;2.42;2.03;;;;;;;13.50;nan;-24193.78;5015635;28;20261;-67
2022/09/21 05:13:41;;;;;;;3.70;2.00;;;;;;;13.71;nan;-24199.81;5030817;28;20176;-70
2022/09/21 05:16:08;;;;;;;2.47;1.90;;;;;;;13.81;nan;-24202.34;5030387;28;20179;-70
2022/09/21 05:18:34;;;;;;;1.98;1.75;;;;;;;13.61;nan;-24196.88;5031193;28;20171;-69
2022/09/21 05:21:00;;;;;;;2.08;1.83;;;;;;;13.76;nan;-24201.09;5030932;28;20520;-69
2022/09/21 05:23:30;;;;;;;2.58;1.95;;;;;;;13.81;nan;-24202.50;5030727;28;20172;-67
2022/09/21 05:25:56;;;;;;;2.00;1.77;;;;;;;14.11;nan;-24210.75;5028614;28;20191;-67
2022/09/21 05:28:23;;;;;;;4.30;1.77;;;;;;;13.76;nan;-24200.94;5039314;28;20252;-68
2022/09/21 05:30:57;;;;;;;2.45;1.80;;;;;;;14.10;nan;-24210.63;5016591;28;20187;-70
2022/09/21 05:33:27;;;;;;;2.00;1.70;;;;;;;14.00;nan;-24207.81;5010905;28;20553;-68
2022/09/21 05:36:07;;;;;;;2.22;1.88;;;;;;;14.45;nan;-24220.16;5030367;28;20282;-68
2022/09/21 05:38:33;;;;;;;2.47;1.92;;;;;;;14.20;nan;-24213.28;5031124;28;20163;-69
2022/09/21 05:40:59;;;;;;;1.98;1.70;;;;;;;14.43;nan;-24219.59;5033985;28;20199;-68
2022/09/21 05:43:24;;;;;;;2.60;1.83;;;;;;;14.75;nan;-24228.44;5034039;28;20258;-68
2022/09/21 05:46:01;;;;;;;2.45;1.80;;;;;;;14.85;nan;-24231.25;5034013;28;20171;-67
2022/09/21 05:48:35;;;;;;;2.20;2.00;;;;;;;14.83;nan;-24230.69;5034241;28;20191;-69
2022/09/21 05:51:09;;;;;;;2.13;1.92;;;;;;;14.62;nan;-24224.78;5033241;28;20566;-69
2022/09/21 05:53:52;;;;;;;2.97;2.10;;;;;;;14.21;nan;-24213.44;5033818;28;20171;-63
2022/09/21 05:56:35;;;;;;;2.53;2.30;;;;;;;14.75;nan;-24228.44;5034126;28;20183;-66
2022/09/21 05:59:00;;;;;;;2.75;1.85;;;;;;;15.03;nan;-24236.44;5033384;28;20167;-64
2022/09/21 06:01:45;;;;;;;2.95;2.05;;;;;;;15.32;nan;-24244.28;5034454;28;20238;-65
2022/09/21 06:04:14;;;;;;;4.20;2.10;;;;;;;15.18;nan;-24240.34;5034285;28;20190;-64
2022/09/21 06:06:39;;;;;;;2.35;2.08;;;;;;;15.56;nan;-24250.84;5034473;28;20230;-64
2022/09/21 06:09:05;;;;;;;2.58;1.85;;;;;;;15.20;nan;-24240.91;5034322;28;20176;-64
2022/09/21 06:11:30;;;;;;;2.17;1.60;;;;;;;15.35;nan;-24245.25;5033963;28;20180;-65
2022/09/21 06:13:56;;;;;;;2.60;1.90;;;;;;;15.64;nan;-24253.22;5034628;28;20233;-64
2022/09/21 06:16:21;;;;;;;4.45;2.50;;;;;;;15.55;nan;-24250.56;5034311;28;20241;-67
2022/09/21 06:18:47;;;;;;;2.28;1.88;;;;;;;15.76;nan;-24256.59;5034475;28;20171;-66
2022/09/21 06:21:12;;;;;;;3.55;2.20;;;;;;;15.84;nan;-24258.69;5034641;28;20160;-63
2022/09/21 06:23:38;;;;;;;2.30;2.10;;;;;;;15.84;nan;-24258.69;5034341;28;20258;-65
2022/09/21 06:26:03;;;;;;;1.70;1.60;;;;;;;15.64;nan;-24253.09;5034660;28;20266;-64
2022/09/21 06:28:29;;;;;;;2.50;2.00;;;;;;;15.76;nan;-24256.47;5016413;28;20669;-65
2022/09/21 06:30:56;;;;;;;2.53;2.00;;;;;;;15.61;nan;-24252.41;5032463;28;20642;-65
2022/09/21 06:33:24;;;;;;;2.05;1.70;;;;;;;16.11;nan;-24266.25;5033374;28;20698;-66
2022/09/21 06:35:55;;;;;;;2.45;1.80;;;;;;;15.76;nan;-24256.59;5016496;28;20171;-65
2022/09/21 06:38:21;;;;;;;1.95;1.75;;;;;;;16.05;nan;-24264.56;5034001;28;20171;-64
2022/09/21 06:40:47;;;;;;;2.55;2.10;;;;;;;16.22;nan;-24269.19;5033624;28;20603;-64
2022/09/21 06:43:12;;;;;;;2.30;1.67;;;;;;;15.93;nan;-24261.06;5033578;28;20172;-65
2022/09/21 06:45:38;;;;;;;3.00;1.77;;;;;;;15.91;nan;-24260.78;5033372;28;20183;-65
2022/09/21 06:48:03;;;;;;;2.42;2.03;;;;;;;16.05;nan;-24264.44;5033005;28;20207;-64
2022/09/21 06:50:29;;;;;;;5.40;2.20;;;;;;;16.05;nan;-24264.44;5032561;28;20194;-64
2022/09/21 06:52:54;;;;;;;2.00;1.80;;;;;;;16.12;nan;-24266.53;5015075;28;20258;-65
2022/09/21 06:55:20;;;;;;;3.20;1.90;;;;;;;16.51;nan;-24277.16;5032971;28;20175;-64
2022/09/21 06:57:45;;;;;;;3.42;2.10;;;;;;;16.50;nan;-24276.88;5032871;28;20573;-66
2022/09/21 07:00:12;;;;;;;6.32;2.15;;;;;;;16.60;nan;-24279.66;5033163;28;20532;-64
2022/09/21 07:02:41;;;;;;;2.47;1.60;;;;;;;16.71;nan;-24282.88;5032448;28;20269;-64
2022/09/21 07:05:07;;;;;;;2.75;1.95;;;;;;;17.23;nan;-24297.28;5033302;28;20167;-64
2022/09/21 07:07:35;;;;;;;1.63;1.40;;;;;;;17.69;nan;-24309.69;5032886;28;20808;-64
2022/09/21 07:10:01;;;;;;;2.60;1.77;;;;;;;17.57;nan;-24306.63;5033276;28;20623;-64
2022/09/21 07:12:28;;;;;;;2.53;1.55;;;;;;;17.63;nan;-24308.28;5033087;28;20175;-64
2022/09/21 07:14:53;;;;;;;2.50;1.75;;;;;;;17.54;nan;-24305.63;5032785;28;20588;-64
2022/09/21 07:17:19;;;;;;;1.80;1.33;;;;;;;17.77;nan;-24312.06;5033082;28;20195;-63
2022/09/21 07:19:44;;;;;;;1.85;1.40;;;;;;;17.57;nan;-24306.63;5032976;28;20570;-66
2022/09/21 07:22:10;;;;;;;1.40;1.30;;;;;;;18.09;nan;-24320.97;5033711;28;20236;-64
2022/09/21 07:24:35;;;;;;;2.00;1.80;;;;;;;18.33;nan;-24327.53;5032741;28;20199;-66
2022/09/21 07:27:01;;;;;;;2.15;1.50;;;;;;;17.82;nan;-24313.31;5032917;28;20195;-65
2022/09/21 07:29:26;;;;;;;1.73;1.38;;;;;;;17.66;nan;-24309.00;5032832;28;20176;-64
2022/09/21 07:31:52;;;;;;;2.53;1.70;;;;;;;18.06;nan;-24320.16;5032358;28;20187;-64
2022/09/21 07:34:17;;;;;;;2.78;1.42;;;;;;;17.91;nan;-24315.97;5032461;28;20174;-65
2022/09/21 07:36:43;;;;;;;2.20;1.50;;;;;;;18.17;nan;-24322.94;5032637;28;20195;-65
2022/09/21 07:39:09;;;;;;;1.70;1.52;;;;;;;18.50;nan;-24332.28;5033101;28;20171;-65
2022/09/21 07:41:34;;;;;;;2.10;1.50;;;;;;;18.64;nan;-24335.91;5032221;28;20658;-65
2022/09/21 07:44:00;;;;;;;6.57;2.38;;;;;;;18.63;nan;-24335.63;5032118;28;20179;-66
2022/09/21 07:46:26;;;;;;;2.47;1.33;;;;;;;18.35;nan;-24327.94;5032530;28;20262;-65
2022/09/21 07:48:55;;;;;;;2.15;1.70;;;;;;;18.57;nan;-24333.94;5031397;28;20633;-65
2022/09/21 07:51:22;;;;;;;1.83;1.50;;;;;;;18.37;nan;-24328.66;5032291;28;20175;-65
2022/09/21 07:53:54;;;;;;;2.42;2.00;;;;;;;18.84;nan;-24341.47;5031991;28;20684;-67
2022/09/21 07:56:19;;;;;;;1.50;1.40;;;;;;;18.62;nan;-24335.34;5031459;28;20185;-65
2022/09/21 08:01:29;;;;;;;1.83;1.60;;;;;;;18.95;nan;-24344.66;5031023;28;20225;-66
2022/09/21 08:03:56;;;;;;;1.55;1.25;;;;;;;19.05;nan;-24347.31;5032311;28;20685;-65
2022/09/21 08:06:24;;;;;;;1.58;1.42;;;;;;;18.96;nan;-24344.81;5031908;28;20171;-66
2022/09/21 08:08:49;;;;;;;1.33;1.20;;;;;;;18.74;nan;-24338.69;5014088;28;20632;-65
2022/09/21 08:11:17;;;;;;;3.65;1.45;;;;;;;18.75;nan;-24338.97;5032251;28;20173;-64
2022/09/21 08:13:43;;;;;;;1.42;1.30;;;;;;;19.10;nan;-24348.56;5032206;28;20692;-64
2022/09/21 08:16:09;;;;;;;1.77;1.50;;;;;;;19.72;nan;-24365.81;5031970;28;20179;-65
2022/09/21 08:18:39;;;;;;;1.85;1.40;;;;;;;19.99;nan;-24373.03;5032491;28;20175;-65
2022/09/21 08:21:05;;;;;;;1.52;1.42;;;;;;;20.06;nan;-24375.13;5031892;28;20206;-65
2022/09/21 08:23:31;;;;;;;2.17;1.60;;;;;;;19.95;nan;-24372.06;5031876;28;20266;-65
2022/09/21 08:26:05;;;;;;;1.38;1.27;;;;;;;19.41;nan;-24357.19;5031647;28;20156;-65
2022/09/21 08:28:32;;;;;;;3.05;1.92;;;;;;;19.72;nan;-24365.69;5032038;28;20210;-65
2022/09/21 08:31:01;;;;;;;1.55;1.40;;;;;;;19.78;nan;-24367.47;5032170;28;20259;-65
2022/09/21 08:33:27;;;;;;;2.08;1.60;;;;;;;19.47;nan;-24358.72;5032219;28;20213;-65
2022/09/21 08:35:54;;;;;;;2.42;1.58;;;;;;;19.50;nan;-24359.56;5032291;28;20258;-65
2022/09/21 08:38:20;;;;;;;1.58;1.33;;;;;;;19.53;nan;-24360.53;5032083;28;20210;-64
2022/09/21 08:40:46;;;;;;;2.25;1.50;;;;;;;19.37;nan;-24356.22;5031853;28;20225;-66
2022/09/21 08:43:15;;;;;;;2.40;1.60;;;;;;;20.03;nan;-24374.16;5031433;28;20233;-64
2022/09/21 08:45:43;;;;;;;1.50;1.35;;;;;;;19.98;nan;-24372.91;5031289;28;20170;-64
2022/09/21 08:48:39;;;;;;;2.20;1.42;;;;;;;19.82;nan;-24368.47;5031867;28;20195;-64
2022/09/21 08:51:08;;;;;;;2.53;1.45;;;;;;;19.65;nan;-24363.72;5030550;28;20215;-65
2022/09/21 08:53:37;;;;;;;1.58;1.30;;;;;;;19.69;nan;-24364.97;5031654;28;20229;-66
2022/09/21 08:56:03;;;;;;;1.95;1.10;;;;;;;20.01;nan;-24373.59;5031455;28;20229;-66
2022/09/21 08:58:31;;;;;;;2.50;1.60;;;;;;;20.16;nan;-24377.91;5030542;28;20199;-66
2022/09/21 09:01:23;;;;;;;2.30;1.67;;;;;;;20.18;nan;-24378.47;5038483;28;20261;-65
2022/09/21 09:04:15;;;;;;;2.72;1.85;;;;;;;20.05;nan;-24374.72;5023033;28;20306;-65
2022/09/21 09:06:43;;;;;;;2.00;1.10;;;;;;;20.43;nan;-24385.28;5012294;28;20172;-65
2022/09/21 09:09:17;;;;;;;1.30;1.20;;;;;;;20.14;nan;-24377.34;5028189;28;20653;-66
2022/09/21 09:12:10;;;;;;;1.30;1.00;;;;;;;20.22;nan;-24379.56;5031163;28;20651;-66
2022/09/21 09:14:53;;;;;;;1.85;1.35;;;;;;;20.18;nan;-24378.47;5034603;28;20209;-65
2022/09/21 09:17:36;;;;;;;4.40;1.73;;;;;;;19.92;nan;-24371.09;5034850;28;20174;-65
2022/09/21 09:20:12;;;;;;;1.15;1.05;;;;;;;19.68;nan;-24364.56;5034790;28;20175;-66
2022/09/21 09:22:59;;;;;;;1.15;1.00;;;;;;;20.14;nan;-24377.34;5016954;28;20262;-65
2022/09/21 09:25:26;;;;;;;1.20;1.10;;;;;;;20.01;nan;-24373.59;5034643;28;20588;-64
2022/09/21 09:27:58;;;;;;;1.45;1.20;;;;;;;20.50;nan;-24387.06;5034538;28;20195;-65
2022/09/21 09:30:25;;;;;;;1.08;1.00;;;;;;;20.46;nan;-24385.97;5034734;28;20183;-65
2022/09/21 09:33:01;;;;;;;1.17;1.00;;;;;;;20.54;nan;-24388.31;5034265;28;20176;-65
2022/09/21 09:35:35;;;;;;;0.90;0.90;;;;;;;20.71;nan;-24392.91;5033617;28;20187;-64
2022/09/21 09:38:16;;;;;;;1.23;1.13;;;;;;;20.49;nan;-24386.78;5033761;28;20164;-65
2022/09/21 09:40:54;;;;;;;1.00;1.00;;;;;;;20.67;nan;-24391.94;5034123;28;20183;-65
2022/09/21 09:43:48;;;;;;;1.35;1.10;;;;;;;20.89;nan;-24397.91;5033867;28;20192;-66
2022/09/21 09:46:25;;;;;;;1.58;1.00;;;;;;;21.08;nan;-24403.16;5034342;28;20619;-65
2022/09/21 09:49:13;;;;;;;1.20;1.10;;;;;;;21.26;nan;-24408.03;5033703;28;20317;-65
2022/09/21 09:51:39;;;;;;;1.13;1.02;;;;;;;20.69;nan;-24392.34;5033468;28;20168;-65
2022/09/21 09:54:13;;;;;;;1.10;1.00;;;;;;;20.84;nan;-24396.38;5032566;28;20202;-65
2022/09/21 09:56:38;;;;;;;1.17;0.98;;;;;;;21.73;nan;-24420.91;5033964;28;20195;-65
2022/09/21 09:59:09;;;;;;;1.02;0.93;;;;;;;21.75;nan;-24421.31;5033873;28;20231;-65
2022/09/21 10:01:46;;;;;;;1.33;1.23;;;;;;;21.70;nan;-24419.94;5034277;28;20233;-65
2022/09/21 10:04:13;;;;;;;1.10;0.95;;;;;;;21.35;nan;-24410.38;5034162;28;20189;-65
2022/09/21 10:06:39;;;;;;;1.42;1.33;;;;;;;21.75;nan;-24421.47;5033975;28;20641;-65
2022/09/21 10:09:23;;;;;;;0.98;0.90;;;;;;;22.29;nan;-24436.28;5033787;28;20262;-64
2022/09/21 10:11:50;;;;;;;1.10;1.00;;;;;;;21.97;nan;-24427.56;5033727;28;20176;-66
2022/09/21 10:14:22;;;;;;;1.10;1.00;;;;;;;21.81;nan;-24423.13;5034143;28;20182;-65
2022/09/21 10:16:50;;;;;;;0.90;0.80;;;;;;;22.00;nan;-24428.38;5033777;28;20175;-66
2022/09/21 10:19:25;;;;;;;1.20;1.10;;;;;;;21.80;nan;-24422.84;5033364;28;20678;-66
2022/09/21 10:21:59;;;;;;;1.17;1.02;;;;;;;21.72;nan;-24420.63;5033297;28;20191;-65
2022/09/21 10:24:39;;;;;;;1.58;1.10;;;;;;;21.69;nan;-24419.78;5030690;28;20567;-65
2022/09/21 10:27:05;;;;;;;1.17;1.02;;;;;;;21.97;nan;-24427.56;5032956;28;20195;-65
2022/09/21 10:29:41;;;;;;;1.00;1.00;;;;;;;21.59;nan;-24417.03;5033055;28;20163;-66
2022/09/21 10:32:12;;;;;;;1.00;0.93;;;;;;;21.38;nan;-24411.22;5033107;28;20256;-65
2022/09/21 10:34:40;;;;;;;0.80;0.80;;;;;;;21.59;nan;-24417.16;5033060;28;20200;-65
2022/09/21 10:37:36;;;;;;;4.03;1.00;;;;;;;21.26;nan;-24408.03;5032411;28;20186;-65
2022/09/21 10:40:03;;;;;;;1.42;0.90;;;;;;;21.49;nan;-24414.41;5032967;28;20206;-65
2022/09/21 10:42:33;;;;;;;1.08;0.98;;;;;;;21.43;nan;-24412.59;5032616;28;20178;-65
2022/09/21 10:45:16;;;;;;;1.00;0.90;;;;;;;22.00;nan;-24428.38;5032417;28;20178;-65
2022/09/21 10:47:45;;;;;;;0.95;0.80;;;;;;;21.46;nan;-24413.56;5032472;28;20210;-66
2022/09/21 10:50:22;;;;;;;0.90;0.80;;;;;;;21.33;nan;-24409.81;5032814;28;20175;-65
2022/09/21 10:52:55;;;;;;;1.05;0.93;;;;;;;21.79;nan;-24422.56;5032892;28;20179;-65
2022/09/21 10:55:22;;;;;;;1.17;1.08;;;;;;;21.47;nan;-24413.69;5031480;28;20218;-66
2022/09/21 10:57:49;;;;;;;1.13;1.00;;;;;;;21.66;nan;-24418.81;5027980;28;20266;-66
2022/09/21 11:00:20;;;;;;;1.13;0.90;;;;;;;21.51;nan;-24414.81;5041524;28;20716;-64
2022/09/21 11:02:47;;;;;;;1.10;0.93;;;;;;;20.96;nan;-24399.84;5023570;28;20228;-65
2022/09/21 11:05:25;;;;;;;0.88;0.88;;;;;;;20.96;nan;-24399.84;5012751;28;20260;-65
2022/09/21 11:08:19;;;;;;;1.17;0.98;;;;;;;21.42;nan;-24412.31;5028362;28;20199;-66
2022/09/21 11:11:02;;;;;;;0.88;0.88;;;;;;;21.74;nan;-24421.19;5032801;28;20702;-65
2022/09/21 11:13:38;;;;;;;0.80;0.80;;;;;;;21.92;nan;-24426.03;5032687;28;20225;-65
2022/09/21 11:16:23;;;;;;;0.90;0.90;;;;;;;21.42;nan;-24412.47;5033942;28;20171;-65
2022/09/21 11:19:08;;;;;;;1.20;1.00;;;;;;;21.35;nan;-24410.50;5001574;28;20199;-65
2022/09/21 11:21:54;;;;;;;0.80;0.80;;;;;;;21.11;nan;-24403.84;5032517;28;20168;-67
2022/09/21 11:24:44;;;;;;;0.77;0.77;;;;;;;21.40;nan;-24411.75;5030861;28;20179;-65
2022/09/21 11:27:22;;;;;;;0.93;0.93;;;;;;;20.82;nan;-24395.94;5032247;28;20202;-65
2022/09/21 11:30:02;;;;;;;0.80;0.80;;;;;;;21.28;nan;-24408.56;5032431;28;20641;-67
2022/09/21 11:32:46;;;;;;;1.40;1.20;;;;;;;21.45;nan;-24413.16;5032375;28;20175;-67
2022/09/21 11:35:41;;;;;;;1.65;0.80;;;;;;;21.48;nan;-24413.97;5031992;28;20619;-66
2022/09/21 11:38:38;;;;;;;0.88;0.88;;;;;;;21.63;nan;-24418.00;5031305;28;20250;-65
2022/09/21 11:41:12;;;;;;;1.30;1.20;;;;;;;21.11;nan;-24403.84;5031817;28;20645;-65
2022/09/21 11:43:44;;;;;;;0.85;0.85;;;;;;;21.45;nan;-24413.28;5031514;28;20179;-65
2022/09/21 11:46:35;;;;;;;0.70;0.70;;;;;;;21.64;nan;-24418.28;5031769;28;20373;-63
2022/09/21 11:49:33;;;;;;;1.33;0.98;;;;;;;21.81;nan;-24423.13;5031164;28;20222;-64
2022/09/21 11:52:01;;;;;;;1.98;1.20;;;;;;;21.90;nan;-24425.47;5010300;28;20292;-66
2022/09/21 11:54:32;;;;;;;1.25;1.13;;;;;;;21.60;nan;-24417.31;5031619;28;20606;-65
2022/09/21 11:57:18;;;;;;;2.15;1.65;;;;;;;21.67;nan;-24419.25;5031951;28;20245;-65
2022/09/21 12:00:05;;;;;;;1.10;1.00;;;;;;;22.43;nan;-24440.00;5031816;28;20168;-65
2022/09/21 12:03:07;;;;;;;2.20;1.40;;;;;;;22.61;nan;-24445.00;5031596;28;20696;-66
2022/09/21 12:06:05;;;;;;;0.90;0.85;;;;;;;22.20;nan;-24433.78;5031323;28;20175;-66